sensor_id;sensor_type;location;lat;lon;timestamp;P1;durP1;ratioP1;P2;durP2;ratioP2
76593;SDS011;65482;50.240;14.302;2022-12-11T00:00:37;28.83;;;12.85;;
76593;SDS011;65482;50.240;14.302;2022-12-11T00:03:56;26.63;;;12.40;;
76593;SDS011;65482;50.240;14.302;2022-12-11T00:16:49;28.53;;;12.40;;
76593;SDS011;65482;50.240;14.302;2022-12-11T00:19:47;26.38;;;12.65;;
76593;SDS011;65482;50.240;14.302;2022-12-11T00:22:41;29.08;;;13.77;;
76593;SDS011;65482;50.240;14.302;2022-12-11T00:28:29;26.92;;;12.25;;
76593;SDS011;65482;50.240;14.302;2022-12-11T00:34:48;26.00;;;12.57;;
76593;SDS011;65482;50.240;14.302;2022-12-11T00:38:13;28.10;;;12.77;;
76593;SDS011;65482;50.240;14.302;2022-12-11T00:41:21;27.58;;;12.57;;
76593;SDS011;65482;50.240;14.302;2022-12-11T00:44:38;24.33;;;11.90;;
76593;SDS011;65482;50.240;14.302;2022-12-11T00:47:28;26.60;;;12.07;;
76593;SDS011;65482;50.240;14.302;2022-12-11T00:50:09;25.63;;;12.20;;
76593;SDS011;65482;50.240;14.302;2022-12-11T00:53:44;23.15;;;10.95;;
76593;SDS011;65482;50.240;14.302;2022-12-11T00:56:11;25.75;;;11.90;;
76593;SDS011;65482;50.240;14.302;2022-12-11T00:58:56;24.20;;;12.35;;
76593;SDS011;65482;50.240;14.302;2022-12-11T01:01:56;24.15;;;12.25;;
76593;SDS011;65482;50.240;14.302;2022-12-11T01:04:40;25.10;;;12.35;;
76593;SDS011;65482;50.240;14.302;2022-12-11T01:07:44;25.85;;;12.15;;
76593;SDS011;65482;50.240;14.302;2022-12-11T01:10:30;26.73;;;12.70;;
76593;SDS011;65482;50.240;14.302;2022-12-11T01:12:58;25.83;;;13.18;;
76593;SDS011;65482;50.240;14.302;2022-12-11T01:15:37;25.35;;;13.18;;
76593;SDS011;65482;50.240;14.302;2022-12-11T01:18:06;26.95;;;12.63;;
76593;SDS011;65482;50.240;14.302;2022-12-11T01:20:36;26.98;;;12.98;;
76593;SDS011;65482;50.240;14.302;2022-12-11T01:23:04;25.13;;;12.80;;
76593;SDS011;65482;50.240;14.302;2022-12-11T01:25:31;26.33;;;12.20;;
76593;SDS011;65482;50.240;14.302;2022-12-11T01:28:02;24.30;;;12.10;;
76593;SDS011;65482;50.240;14.302;2022-12-11T01:30:30;25.42;;;11.55;;
76593;SDS011;65482;50.240;14.302;2022-12-11T01:32:58;26.00;;;11.95;;
76593;SDS011;65482;50.240;14.302;2022-12-11T01:35:26;24.90;;;10.70;;
76593;SDS011;65482;50.240;14.302;2022-12-11T01:37:52;23.88;;;11.02;;
76593;SDS011;65482;50.240;14.302;2022-12-11T01:40:19;18.38;;;9.80;;
76593;SDS011;65482;50.240;14.302;2022-12-11T01:42:45;20.10;;;10.25;;
76593;SDS011;65482;50.240;14.302;2022-12-11T01:48:10;20.38;;;10.05;;
76593;SDS011;65482;50.240;14.302;2022-12-11T01:50:48;17.92;;;8.73;;
76593;SDS011;65482;50.240;14.302;2022-12-11T01:53:29;17.95;;;9.35;;
76593;SDS011;65482;50.240;14.302;2022-12-11T01:56:03;17.60;;;8.93;;
76593;SDS011;65482;50.240;14.302;2022-12-11T01:58:53;15.30;;;8.13;;
76593;SDS011;65482;50.240;14.302;2022-12-11T02:01:25;15.45;;;7.63;;
76593;SDS011;65482;50.240;14.302;2022-12-11T02:04:05;17.67;;;8.23;;
76593;SDS011;65482;50.240;14.302;2022-12-11T02:06:35;18.02;;;8.45;;
76593;SDS011;65482;50.240;14.302;2022-12-11T02:09:13;13.43;;;7.07;;
76593;SDS011;65482;50.240;14.302;2022-12-11T02:12:03;16.92;;;8.13;;
76593;SDS011;65482;50.240;14.302;2022-12-11T02:26:11;15.07;;;7.78;;
76593;SDS011;65482;50.240;14.302;2022-12-11T02:28:57;16.58;;;8.52;;
76593;SDS011;65482;50.240;14.302;2022-12-11T02:31:36;16.17;;;7.72;;
76593;SDS011;65482;50.240;14.302;2022-12-11T02:34:41;13.00;;;7.47;;
76593;SDS011;65482;50.240;14.302;2022-12-11T02:37:17;14.40;;;8.20;;
76593;SDS011;65482;50.240;14.302;2022-12-11T02:39:46;15.20;;;8.15;;
76593;SDS011;65482;50.240;14.302;2022-12-11T02:42:16;14.70;;;8.50;;
76593;SDS011;65482;50.240;14.302;2022-12-11T02:44:43;16.45;;;8.00;;
76593;SDS011;65482;50.240;14.302;2022-12-11T02:47:22;14.63;;;8.02;;
76593;SDS011;65482;50.240;14.302;2022-12-11T02:50:08;14.95;;;8.10;;
76593;SDS011;65482;50.240;14.302;2022-12-11T02:52:38;14.35;;;8.35;;
76593;SDS011;65482;50.240;14.302;2022-12-11T02:55:55;16.35;;;8.02;;
76593;SDS011;65482;50.240;14.302;2022-12-11T02:58:47;19.30;;;8.80;;
76593;SDS011;65482;50.240;14.302;2022-12-11T03:01:27;16.17;;;8.68;;
76593;SDS011;65482;50.240;14.302;2022-12-11T03:03:53;18.88;;;8.60;;
76593;SDS011;65482;50.240;14.302;2022-12-11T03:06:26;16.70;;;8.65;;
76593;SDS011;65482;50.240;14.302;2022-12-11T03:09:00;15.15;;;7.90;;
76593;SDS011;65482;50.240;14.302;2022-12-11T03:11:29;15.82;;;8.02;;
76593;SDS011;65482;50.240;14.302;2022-12-11T03:13:55;17.13;;;8.45;;
76593;SDS011;65482;50.240;14.302;2022-12-11T03:16:27;17.95;;;8.77;;
76593;SDS011;65482;50.240;14.302;2022-12-11T03:25:14;16.17;;;8.30;;
76593;SDS011;65482;50.240;14.302;2022-12-11T03:27:56;18.58;;;9.07;;
76593;SDS011;65482;50.240;14.302;2022-12-11T03:30:29;19.48;;;9.52;;
76593;SDS011;65482;50.240;14.302;2022-12-11T03:33:08;20.05;;;10.27;;
76593;SDS011;65482;50.240;14.302;2022-12-11T03:36:04;21.35;;;10.88;;
76593;SDS011;65482;50.240;14.302;2022-12-11T03:38:57;16.88;;;9.07;;
76593;SDS011;65482;50.240;14.302;2022-12-11T03:41:25;18.35;;;9.07;;
76593;SDS011;65482;50.240;14.302;2022-12-11T03:43:54;18.88;;;9.30;;
76593;SDS011;65482;50.240;14.302;2022-12-11T03:46:22;20.15;;;10.93;;
76593;SDS011;65482;50.240;14.302;2022-12-11T03:48:54;18.25;;;9.43;;
76593;SDS011;65482;50.240;14.302;2022-12-11T03:51:24;20.48;;;10.00;;
76593;SDS011;65482;50.240;14.302;2022-12-11T03:53:51;24.10;;;11.70;;
76593;SDS011;65482;50.240;14.302;2022-12-11T03:56:17;21.20;;;10.32;;
76593;SDS011;65482;50.240;14.302;2022-12-11T03:58:46;21.98;;;11.15;;
76593;SDS011;65482;50.240;14.302;2022-12-11T04:01:12;21.70;;;11.05;;
76593;SDS011;65482;50.240;14.302;2022-12-11T04:03:41;20.75;;;10.98;;
76593;SDS011;65482;50.240;14.302;2022-12-11T04:06:08;21.58;;;10.23;;
76593;SDS011;65482;50.240;14.302;2022-12-11T04:08:39;20.25;;;10.00;;
76593;SDS011;65482;50.240;14.302;2022-12-11T04:11:11;17.00;;;10.18;;
76593;SDS011;65482;50.240;14.302;2022-12-11T04:13:57;17.80;;;9.35;;
76593;SDS011;65482;50.240;14.302;2022-12-11T04:17:21;18.75;;;10.45;;
76593;SDS011;65482;50.240;14.302;2022-12-11T04:20:10;16.73;;;10.10;;
76593;SDS011;65482;50.240;14.302;2022-12-11T04:23:04;17.92;;;10.27;;
76593;SDS011;65482;50.240;14.302;2022-12-11T04:26:19;19.25;;;9.40;;
76593;SDS011;65482;50.240;14.302;2022-12-11T04:28:46;19.85;;;10.00;;
76593;SDS011;65482;50.240;14.302;2022-12-11T04:31:16;17.98;;;9.68;;
76593;SDS011;65482;50.240;14.302;2022-12-11T04:33:43;16.55;;;9.57;;
76593;SDS011;65482;50.240;14.302;2022-12-11T04:36:25;17.27;;;9.40;;
76593;SDS011;65482;50.240;14.302;2022-12-11T04:39:00;21.30;;;10.32;;
76593;SDS011;65482;50.240;14.302;2022-12-11T04:41:35;20.10;;;9.38;;
76593;SDS011;65482;50.240;14.302;2022-12-11T04:44:33;18.17;;;9.13;;
76593;SDS011;65482;50.240;14.302;2022-12-11T04:47:34;20.33;;;9.65;;
76593;SDS011;65482;50.240;14.302;2022-12-11T04:50:31;18.33;;;8.57;;
76593;SDS011;65482;50.240;14.302;2022-12-11T04:52:59;18.88;;;9.45;;
76593;SDS011;65482;50.240;14.302;2022-12-11T04:55:47;17.02;;;8.70;;
76593;SDS011;65482;50.240;14.302;2022-12-11T04:58:13;19.23;;;8.80;;
76593;SDS011;65482;50.240;14.302;2022-12-11T05:00:40;19.88;;;9.55;;
76593;SDS011;65482;50.240;14.302;2022-12-11T05:03:07;19.27;;;8.85;;
76593;SDS011;65482;50.240;14.302;2022-12-11T05:05:36;20.20;;;8.95;;
76593;SDS011;65482;50.240;14.302;2022-12-11T05:08:03;19.30;;;8.93;;
76593;SDS011;65482;50.240;14.302;2022-12-11T05:10:29;19.15;;;8.85;;
76593;SDS011;65482;50.240;14.302;2022-12-11T05:12:56;18.17;;;8.43;;
76593;SDS011;65482;50.240;14.302;2022-12-11T05:15:22;18.15;;;8.63;;
76593;SDS011;65482;50.240;14.302;2022-12-11T05:17:52;14.95;;;8.50;;
76593;SDS011;65482;50.240;14.302;2022-12-11T05:20:40;16.25;;;8.68;;
76593;SDS011;65482;50.240;14.302;2022-12-11T05:23:08;17.42;;;8.13;;
76593;SDS011;65482;50.240;14.302;2022-12-11T05:25:34;17.60;;;8.70;;
76593;SDS011;65482;50.240;14.302;2022-12-11T05:28:01;16.85;;;8.48;;
76593;SDS011;65482;50.240;14.302;2022-12-11T05:30:28;16.05;;;7.30;;
76593;SDS011;65482;50.240;14.302;2022-12-11T05:32:59;14.93;;;7.50;;
76593;SDS011;65482;50.240;14.302;2022-12-11T05:35:25;14.25;;;7.78;;
76593;SDS011;65482;50.240;14.302;2022-12-11T05:37:54;15.07;;;7.80;;
76593;SDS011;65482;50.240;14.302;2022-12-11T05:40:23;13.73;;;7.47;;
76593;SDS011;65482;50.240;14.302;2022-12-11T05:42:50;13.93;;;7.15;;
76593;SDS011;65482;50.240;14.302;2022-12-11T05:45:42;15.00;;;8.00;;
76593;SDS011;65482;50.240;14.302;2022-12-11T05:48:24;14.80;;;8.02;;
76593;SDS011;65482;50.240;14.302;2022-12-11T05:50:57;15.52;;;8.23;;
76593;SDS011;65482;50.240;14.302;2022-12-11T05:53:30;14.68;;;7.85;;
76593;SDS011;65482;50.240;14.302;2022-12-11T05:56:00;15.98;;;8.25;;
76593;SDS011;65482;50.240;14.302;2022-12-11T05:58:27;16.20;;;8.00;;
76593;SDS011;65482;50.240;14.302;2022-12-11T06:01:05;14.93;;;8.15;;
76593;SDS011;65482;50.240;14.302;2022-12-11T06:04:00;15.38;;;8.50;;
76593;SDS011;65482;50.240;14.302;2022-12-11T06:07:00;15.50;;;7.85;;
76593;SDS011;65482;50.240;14.302;2022-12-11T06:09:42;15.45;;;7.95;;
76593;SDS011;65482;50.240;14.302;2022-12-11T06:12:11;17.13;;;8.18;;
76593;SDS011;65482;50.240;14.302;2022-12-11T06:14:59;16.38;;;8.35;;
76593;SDS011;65482;50.240;14.302;2022-12-11T06:17:50;14.98;;;8.75;;
76593;SDS011;65482;50.240;14.302;2022-12-11T06:20:25;18.40;;;8.85;;
76593;SDS011;65482;50.240;14.302;2022-12-11T06:23:28;14.45;;;8.60;;
76593;SDS011;65482;50.240;14.302;2022-12-11T06:32:40;15.25;;;7.80;;
76593;SDS011;65482;50.240;14.302;2022-12-11T06:35:29;16.77;;;8.63;;
76593;SDS011;65482;50.240;14.302;2022-12-11T06:38:50;14.95;;;8.10;;
76593;SDS011;65482;50.240;14.302;2022-12-11T06:41:47;17.02;;;8.27;;
76593;SDS011;65482;50.240;14.302;2022-12-11T06:44:14;18.40;;;8.80;;
76593;SDS011;65482;50.240;14.302;2022-12-11T06:47:22;16.13;;;8.52;;
76593;SDS011;65482;50.240;14.302;2022-12-11T06:49:48;16.70;;;9.10;;
76593;SDS011;65482;50.240;14.302;2022-12-11T06:52:37;18.83;;;10.10;;
76593;SDS011;65482;50.240;14.302;2022-12-11T06:55:04;17.35;;;9.20;;
76593;SDS011;65482;50.240;14.302;2022-12-11T06:57:34;18.27;;;8.93;;
76593;SDS011;65482;50.240;14.302;2022-12-11T07:00:35;17.25;;;8.40;;
76593;SDS011;65482;50.240;14.302;2022-12-11T07:06:37;20.67;;;9.68;;
76593;SDS011;65482;50.240;14.302;2022-12-11T07:09:17;18.20;;;8.57;;
76593;SDS011;65482;50.240;14.302;2022-12-11T07:12:09;19.30;;;9.63;;
76593;SDS011;65482;50.240;14.302;2022-12-11T07:14:47;17.45;;;8.35;;
76593;SDS011;65482;50.240;14.302;2022-12-11T07:17:26;18.52;;;9.98;;
76593;SDS011;65482;50.240;14.302;2022-12-11T07:20:08;16.42;;;8.70;;
76593;SDS011;65482;50.240;14.302;2022-12-11T07:22:52;20.13;;;9.90;;
76593;SDS011;65482;50.240;14.302;2022-12-11T07:25:24;17.35;;;8.55;;
76593;SDS011;65482;50.240;14.302;2022-12-11T07:31:40;16.30;;;8.55;;
76593;SDS011;65482;50.240;14.302;2022-12-11T07:35:06;19.85;;;9.50;;
76593;SDS011;65482;50.240;14.302;2022-12-11T07:38:31;18.20;;;8.85;;
76593;SDS011;65482;50.240;14.302;2022-12-11T07:41:55;16.58;;;8.77;;
76593;SDS011;65482;50.240;14.302;2022-12-11T07:44:52;19.55;;;10.30;;
76593;SDS011;65482;50.240;14.302;2022-12-11T07:47:51;17.95;;;8.98;;
76593;SDS011;65482;50.240;14.302;2022-12-11T07:54:34;17.10;;;8.80;;
76593;SDS011;65482;50.240;14.302;2022-12-11T07:57:17;19.23;;;9.18;;
76593;SDS011;65482;50.240;14.302;2022-12-11T07:59:57;18.58;;;9.68;;
76593;SDS011;65482;50.240;14.302;2022-12-11T08:02:56;18.95;;;9.75;;
76593;SDS011;65482;50.240;14.302;2022-12-11T08:09:47;15.68;;;8.35;;
76593;SDS011;65482;50.240;14.302;2022-12-11T08:12:39;14.70;;;8.18;;
76593;SDS011;65482;50.240;14.302;2022-12-11T08:16:12;19.73;;;9.93;;
76593;SDS011;65482;50.240;14.302;2022-12-11T08:18:48;17.15;;;9.02;;
76593;SDS011;65482;50.240;14.302;2022-12-11T08:22:15;17.48;;;9.05;;
76593;SDS011;65482;50.240;14.302;2022-12-11T08:25:50;18.42;;;9.05;;
76593;SDS011;65482;50.240;14.302;2022-12-11T08:28:50;20.73;;;10.13;;
76593;SDS011;65482;50.240;14.302;2022-12-11T08:31:36;36.63;;;13.95;;
76593;SDS011;65482;50.240;14.302;2022-12-11T08:34:03;23.35;;;10.43;;
76593;SDS011;65482;50.240;14.302;2022-12-11T08:36:29;20.80;;;10.07;;
76593;SDS011;65482;50.240;14.302;2022-12-11T08:38:56;17.63;;;9.48;;
76593;SDS011;65482;50.240;14.302;2022-12-11T08:41:31;16.33;;;8.73;;
76593;SDS011;65482;50.240;14.302;2022-12-11T08:44:12;16.60;;;8.40;;
76593;SDS011;65482;50.240;14.302;2022-12-11T08:46:39;17.60;;;8.98;;
76593;SDS011;65482;50.240;14.302;2022-12-11T08:49:05;15.25;;;8.18;;
76593;SDS011;65482;50.240;14.302;2022-12-11T08:51:32;16.35;;;8.77;;
76593;SDS011;65482;50.240;14.302;2022-12-11T08:53:59;16.83;;;9.07;;
76593;SDS011;65482;50.240;14.302;2022-12-11T08:56:29;14.10;;;8.30;;
76593;SDS011;65482;50.240;14.302;2022-12-11T08:58:54;14.95;;;7.80;;
76593;SDS011;65482;50.240;14.302;2022-12-11T09:01:24;11.85;;;7.32;;
76593;SDS011;65482;50.240;14.302;2022-12-11T09:03:55;13.80;;;7.03;;
76593;SDS011;65482;50.240;14.302;2022-12-11T09:06:36;12.55;;;6.93;;
76593;SDS011;65482;50.240;14.302;2022-12-11T09:13:24;12.02;;;6.13;;
76593;SDS011;65482;50.240;14.302;2022-12-11T09:16:33;10.32;;;6.07;;
76593;SDS011;65482;50.240;14.302;2022-12-11T09:20:01;10.68;;;5.38;;
76593;SDS011;65482;50.240;14.302;2022-12-11T09:22:38;10.77;;;5.50;;
76593;SDS011;65482;50.240;14.302;2022-12-11T09:25:54;12.07;;;5.38;;
76593;SDS011;65482;50.240;14.302;2022-12-11T09:28:47;11.05;;;5.93;;
76593;SDS011;65482;50.240;14.302;2022-12-11T09:31:55;9.18;;;5.28;;
76593;SDS011;65482;50.240;14.302;2022-12-11T09:35:09;10.07;;;5.32;;
76593;SDS011;65482;50.240;14.302;2022-12-11T09:38:23;7.20;;;4.50;;
76593;SDS011;65482;50.240;14.302;2022-12-11T09:41:36;10.98;;;5.90;;
76593;SDS011;65482;50.240;14.302;2022-12-11T09:48:04;13.60;;;5.03;;
76593;SDS011;65482;50.240;14.302;2022-12-11T09:50:54;13.00;;;5.65;;
76593;SDS011;65482;50.240;14.302;2022-12-11T09:53:31;10.85;;;5.50;;
76593;SDS011;65482;50.240;14.302;2022-12-11T10:18:10;12.50;;;6.30;;
76593;SDS011;65482;50.240;14.302;2022-12-11T10:20:40;15.23;;;7.20;;
76593;SDS011;65482;50.240;14.302;2022-12-11T10:23:11;10.75;;;7.07;;
76593;SDS011;65482;50.240;14.302;2022-12-11T10:25:45;12.30;;;6.25;;
76593;SDS011;65482;50.240;14.302;2022-12-11T10:28:17;12.02;;;6.55;;
76593;SDS011;65482;50.240;14.302;2022-12-11T10:36:40;15.05;;;6.90;;
76593;SDS011;65482;50.240;14.302;2022-12-11T10:39:11;11.82;;;6.50;;
76593;SDS011;65482;50.240;14.302;2022-12-11T10:41:41;12.93;;;6.43;;
76593;SDS011;65482;50.240;14.302;2022-12-11T10:44:30;13.15;;;6.53;;
76593;SDS011;65482;50.240;14.302;2022-12-11T10:49:30;13.73;;;7.22;;
76593;SDS011;65482;50.240;14.302;2022-12-11T10:52:46;12.00;;;6.38;;
76593;SDS011;65482;50.240;14.302;2022-12-11T10:55:24;13.82;;;7.20;;
76593;SDS011;65482;50.240;14.302;2022-12-11T10:58:02;11.77;;;6.93;;
76593;SDS011;65482;50.240;14.302;2022-12-11T11:00:35;12.45;;;6.47;;
76593;SDS011;65482;50.240;14.302;2022-12-11T11:03:05;11.75;;;6.85;;
76593;SDS011;65482;50.240;14.302;2022-12-11T11:06:11;13.57;;;6.93;;
76593;SDS011;65482;50.240;14.302;2022-12-11T11:08:48;12.48;;;6.72;;
76593;SDS011;65482;50.240;14.302;2022-12-11T11:11:33;10.77;;;5.85;;
76593;SDS011;65482;50.240;14.302;2022-12-11T11:14:26;12.05;;;6.75;;
76593;SDS011;65482;50.240;14.302;2022-12-11T11:17:25;14.32;;;6.80;;
76593;SDS011;65482;50.240;14.302;2022-12-11T11:19:53;12.57;;;7.10;;
76593;SDS011;65482;50.240;14.302;2022-12-11T11:22:22;15.40;;;7.60;;
76593;SDS011;65482;50.240;14.302;2022-12-11T11:25:14;13.07;;;7.05;;
76593;SDS011;65482;50.240;14.302;2022-12-11T11:31:35;11.73;;;6.03;;
76593;SDS011;65482;50.240;14.302;2022-12-11T11:34:17;14.02;;;6.72;;
76593;SDS011;65482;50.240;14.302;2022-12-11T11:41:16;12.45;;;6.95;;
76593;SDS011;65482;50.240;14.302;2022-12-11T11:44:36;11.30;;;6.13;;
76593;SDS011;65482;50.240;14.302;2022-12-11T11:55:18;11.25;;;6.38;;
76593;SDS011;65482;50.240;14.302;2022-12-11T11:58:21;13.45;;;7.15;;
76593;SDS011;65482;50.240;14.302;2022-12-11T12:01:54;13.15;;;6.68;;
76593;SDS011;65482;50.240;14.302;2022-12-11T12:04:50;12.70;;;6.30;;
76593;SDS011;65482;50.240;14.302;2022-12-11T12:11:16;12.85;;;6.75;;
76593;SDS011;65482;50.240;14.302;2022-12-11T12:24:54;12.65;;;6.25;;
76593;SDS011;65482;50.240;14.302;2022-12-11T12:31:16;12.00;;;5.80;;
76593;SDS011;65482;50.240;14.302;2022-12-11T12:44:29;11.57;;;6.03;;
76593;SDS011;65482;50.240;14.302;2022-12-11T12:48:05;11.38;;;6.13;;
76593;SDS011;65482;50.240;14.302;2022-12-11T12:51:05;12.05;;;6.13;;
76593;SDS011;65482;50.240;14.302;2022-12-11T12:54:17;10.80;;;5.82;;
76593;SDS011;65482;50.240;14.302;2022-12-11T13:01:16;12.25;;;6.05;;
76593;SDS011;65482;50.240;14.302;2022-12-11T13:04:42;11.07;;;5.63;;
76593;SDS011;65482;50.240;14.302;2022-12-11T13:08:11;11.10;;;5.40;;
76593;SDS011;65482;50.240;14.302;2022-12-11T13:11:18;10.18;;;5.05;;
76593;SDS011;65482;50.240;14.302;2022-12-11T13:14:38;9.20;;;4.88;;
76593;SDS011;65482;50.240;14.302;2022-12-11T13:24:47;10.30;;;5.07;;
76593;SDS011;65482;50.240;14.302;2022-12-11T13:33:52;9.93;;;5.25;;
76593;SDS011;65482;50.240;14.302;2022-12-11T13:36:50;10.68;;;5.57;;
76593;SDS011;65482;50.240;14.302;2022-12-11T13:39:49;13.57;;;5.57;;
76593;SDS011;65482;50.240;14.302;2022-12-11T13:46:18;11.98;;;6.18;;
76593;SDS011;65482;50.240;14.302;2022-12-11T13:52:58;13.98;;;6.55;;
76593;SDS011;65482;50.240;14.302;2022-12-11T13:56:00;12.30;;;6.03;;
76593;SDS011;65482;50.240;14.302;2022-12-11T14:02:54;12.32;;;6.20;;
76593;SDS011;65482;50.240;14.302;2022-12-11T14:05:58;12.05;;;5.70;;
76593;SDS011;65482;50.240;14.302;2022-12-11T14:12:44;12.85;;;6.05;;
76593;SDS011;65482;50.240;14.302;2022-12-11T14:20:14;10.98;;;5.68;;
76593;SDS011;65482;50.240;14.302;2022-12-11T14:27:28;11.82;;;5.63;;
76593;SDS011;65482;50.240;14.302;2022-12-11T14:31:01;10.23;;;5.28;;
76593;SDS011;65482;50.240;14.302;2022-12-11T14:34:58;10.88;;;5.90;;
76593;SDS011;65482;50.240;14.302;2022-12-11T14:37:57;10.20;;;5.68;;
76593;SDS011;65482;50.240;14.302;2022-12-11T14:55:50;11.43;;;5.35;;
76593;SDS011;65482;50.240;14.302;2022-12-11T14:58:54;10.05;;;5.82;;
76593;SDS011;65482;50.240;14.302;2022-12-11T15:02:44;11.50;;;5.65;;
76593;SDS011;65482;50.240;14.302;2022-12-11T15:06:27;9.73;;;5.63;;
76593;SDS011;65482;50.240;14.302;2022-12-11T15:10:00;13.60;;;6.22;;
76593;SDS011;65482;50.240;14.302;2022-12-11T15:14:02;13.25;;;6.93;;
76593;SDS011;65482;50.240;14.302;2022-12-11T15:17:15;12.68;;;6.50;;
76593;SDS011;65482;50.240;14.302;2022-12-11T15:20:30;12.63;;;6.18;;
76593;SDS011;65482;50.240;14.302;2022-12-11T15:23:33;12.50;;;6.50;;
76593;SDS011;65482;50.240;14.302;2022-12-11T15:26:59;14.43;;;7.05;;
76593;SDS011;65482;50.240;14.302;2022-12-11T15:30:53;15.48;;;6.43;;
76593;SDS011;65482;50.240;14.302;2022-12-11T15:33:53;12.05;;;6.53;;
76593;SDS011;65482;50.240;14.302;2022-12-11T15:37:01;16.63;;;8.57;;
76593;SDS011;65482;50.240;14.302;2022-12-11T15:43:43;17.88;;;7.60;;
76593;SDS011;65482;50.240;14.302;2022-12-11T15:46:46;15.57;;;8.07;;
76593;SDS011;65482;50.240;14.302;2022-12-11T15:55:31;18.40;;;10.15;;
76593;SDS011;65482;50.240;14.302;2022-12-11T15:58:04;21.20;;;10.60;;
76593;SDS011;65482;50.240;14.302;2022-12-11T16:03:38;21.70;;;10.93;;
76593;SDS011;65482;50.240;14.302;2022-12-11T16:06:05;22.95;;;12.02;;
76593;SDS011;65482;50.240;14.302;2022-12-11T16:08:31;20.58;;;10.32;;
76593;SDS011;65482;50.240;14.302;2022-12-11T16:10:57;18.50;;;8.82;;
76593;SDS011;65482;50.240;14.302;2022-12-11T16:13:24;15.68;;;8.38;;
76593;SDS011;65482;50.240;14.302;2022-12-11T16:15:50;15.68;;;8.85;;
76593;SDS011;65482;50.240;14.302;2022-12-11T16:18:22;17.00;;;8.77;;
76593;SDS011;65482;50.240;14.302;2022-12-11T16:21:15;21.23;;;10.40;;
76593;SDS011;65482;50.240;14.302;2022-12-11T16:27:00;14.73;;;7.70;;
76593;SDS011;65482;50.240;14.302;2022-12-11T16:29:54;13.15;;;7.00;;
76593;SDS011;65482;50.240;14.302;2022-12-11T16:36:13;14.25;;;7.53;;
76593;SDS011;65482;50.240;14.302;2022-12-11T16:38:48;17.65;;;7.93;;
76593;SDS011;65482;50.240;14.302;2022-12-11T16:41:39;21.13;;;8.20;;
76593;SDS011;65482;50.240;14.302;2022-12-11T16:45:07;14.95;;;7.68;;
76593;SDS011;65482;50.240;14.302;2022-12-11T16:48:36;15.27;;;7.93;;
76593;SDS011;65482;50.240;14.302;2022-12-11T16:51:54;15.88;;;7.28;;
76593;SDS011;65482;50.240;14.302;2022-12-11T16:54:47;14.18;;;7.20;;
76593;SDS011;65482;50.240;14.302;2022-12-11T16:57:14;14.98;;;8.05;;
76593;SDS011;65482;50.240;14.302;2022-12-11T16:59:49;15.15;;;7.88;;
76593;SDS011;65482;50.240;14.302;2022-12-11T17:02:29;15.05;;;7.28;;
76593;SDS011;65482;50.240;14.302;2022-12-11T17:04:55;16.00;;;7.60;;
76593;SDS011;65482;50.240;14.302;2022-12-11T17:07:30;15.80;;;7.90;;
76593;SDS011;65482;50.240;14.302;2022-12-11T17:10:11;14.35;;;7.43;;
76593;SDS011;65482;50.240;14.302;2022-12-11T17:16:21;16.08;;;6.97;;
76593;SDS011;65482;50.240;14.302;2022-12-11T17:19:21;13.35;;;7.05;;
76593;SDS011;65482;50.240;14.302;2022-12-11T17:22:01;16.83;;;8.13;;
76593;SDS011;65482;50.240;14.302;2022-12-11T17:24:42;15.25;;;7.65;;
76593;SDS011;65482;50.240;14.302;2022-12-11T17:27:31;12.95;;;6.95;;
76593;SDS011;65482;50.240;14.302;2022-12-11T17:29:57;15.02;;;7.25;;
76593;SDS011;65482;50.240;14.302;2022-12-11T17:32:27;15.35;;;7.43;;
76593;SDS011;65482;50.240;14.302;2022-12-11T17:34:55;12.68;;;6.88;;
76593;SDS011;65482;50.240;14.302;2022-12-11T17:37:21;13.02;;;6.90;;
76593;SDS011;65482;50.240;14.302;2022-12-11T17:39:47;11.68;;;6.68;;
76593;SDS011;65482;50.240;14.302;2022-12-11T17:42:13;13.00;;;6.55;;
76593;SDS011;65482;50.240;14.302;2022-12-11T17:44:40;12.32;;;6.38;;
76593;SDS011;65482;50.240;14.302;2022-12-11T17:47:07;11.60;;;6.10;;
76593;SDS011;65482;50.240;14.302;2022-12-11T17:49:37;11.02;;;5.63;;
76593;SDS011;65482;50.240;14.302;2022-12-11T17:52:05;12.13;;;6.10;;
76593;SDS011;65482;50.240;14.302;2022-12-11T17:54:33;9.75;;;5.80;;
76593;SDS011;65482;50.240;14.302;2022-12-11T17:56:59;11.80;;;6.28;;
76593;SDS011;65482;50.240;14.302;2022-12-11T17:59:31;14.52;;;7.03;;
76593;SDS011;65482;50.240;14.302;2022-12-11T18:01:58;15.75;;;7.38;;
76593;SDS011;65482;50.240;14.302;2022-12-11T18:04:27;12.90;;;7.35;;
76593;SDS011;65482;50.240;14.302;2022-12-11T18:07:04;12.77;;;7.07;;
76593;SDS011;65482;50.240;14.302;2022-12-11T18:10:46;11.45;;;6.72;;
76593;SDS011;65482;50.240;14.302;2022-12-11T18:13:54;13.25;;;7.00;;
76593;SDS011;65482;50.240;14.302;2022-12-11T18:16:27;15.90;;;7.72;;
76593;SDS011;65482;50.240;14.302;2022-12-11T18:18:59;15.70;;;7.22;;
76593;SDS011;65482;50.240;14.302;2022-12-11T18:21:39;15.68;;;7.40;;
76593;SDS011;65482;50.240;14.302;2022-12-11T18:24:08;15.40;;;8.15;;
76593;SDS011;65482;50.240;14.302;2022-12-11T18:26:35;16.20;;;7.85;;
76593;SDS011;65482;50.240;14.302;2022-12-11T18:29:02;15.13;;;8.30;;
76593;SDS011;65482;50.240;14.302;2022-12-11T18:31:30;14.57;;;8.10;;
76593;SDS011;65482;50.240;14.302;2022-12-11T18:33:56;13.70;;;7.93;;
76593;SDS011;65482;50.240;14.302;2022-12-11T18:36:24;16.70;;;8.30;;
76593;SDS011;65482;50.240;14.302;2022-12-11T18:38:51;16.63;;;8.30;;
76593;SDS011;65482;50.240;14.302;2022-12-11T18:41:19;13.27;;;7.15;;
76593;SDS011;65482;50.240;14.302;2022-12-11T18:43:46;14.25;;;7.43;;
76593;SDS011;65482;50.240;14.302;2022-12-11T18:46:22;14.05;;;7.30;;
76593;SDS011;65482;50.240;14.302;2022-12-11T18:49:39;14.93;;;7.93;;
76593;SDS011;65482;50.240;14.302;2022-12-11T18:52:12;14.73;;;7.40;;
76593;SDS011;65482;50.240;14.302;2022-12-11T18:55:02;14.38;;;7.20;;
76593;SDS011;65482;50.240;14.302;2022-12-11T18:57:34;14.63;;;7.82;;
76593;SDS011;65482;50.240;14.302;2022-12-11T19:00:01;16.65;;;8.13;;
76593;SDS011;65482;50.240;14.302;2022-12-11T19:05:50;17.50;;;8.18;;
76593;SDS011;65482;50.240;14.302;2022-12-11T19:08:21;16.00;;;7.95;;
76593;SDS011;65482;50.240;14.302;2022-12-11T19:10:49;14.88;;;7.43;;
76593;SDS011;65482;50.240;14.302;2022-12-11T19:13:15;14.23;;;7.65;;
76593;SDS011;65482;50.240;14.302;2022-12-11T19:15:42;16.98;;;8.05;;
76593;SDS011;65482;50.240;14.302;2022-12-11T19:18:11;18.83;;;8.95;;
76593;SDS011;65482;50.240;14.302;2022-12-11T19:20:37;15.80;;;8.20;;
76593;SDS011;65482;50.240;14.302;2022-12-11T19:23:04;18.13;;;8.90;;
76593;SDS011;65482;50.240;14.302;2022-12-11T19:25:31;14.15;;;7.78;;
76593;SDS011;65482;50.240;14.302;2022-12-11T19:27:58;16.55;;;8.63;;
76593;SDS011;65482;50.240;14.302;2022-12-11T19:30:25;14.77;;;7.95;;
76593;SDS011;65482;50.240;14.302;2022-12-11T19:32:52;16.90;;;8.27;;
76593;SDS011;65482;50.240;14.302;2022-12-11T19:35:22;15.82;;;8.00;;
76593;SDS011;65482;50.240;14.302;2022-12-11T19:37:51;15.85;;;8.05;;
76593;SDS011;65482;50.240;14.302;2022-12-11T19:40:25;15.00;;;7.40;;
76593;SDS011;65482;50.240;14.302;2022-12-11T19:42:53;15.88;;;8.70;;